LEMG/AGP METAR and TAF weather

Enter ICAO airport designator
Station Type Date Time Source
LEMG METAR 2019/05/25 15:00 UTC NOAA

LEMG 251500Z 14011KT 9999 FEW030 21/14 Q1016 NOSIG


Station Type Date Time Source
LEMG Decoded METAR 2019/05/25 15:00 UTC NOAA

Malaga / Aeropuerto, Spain (LEMG) 36-40N 004-29W 7M
May 25, 2019 - 11:00 AM EDT / 2019.05.25 1500 UTC
Wind: from the SE (140 degrees) at 13 MPH (11 KT):0
Visibility: greater than 7 mile(s):0
Sky conditions: mostly clear
Temperature: 69 F (21 C)
Dew Point: 57 F (14 C)
Relative Humidity: 64%
Pressure (altimeter): 30.00 in. Hg (1016 hPa)
ob: LEMG 251500Z 14011KT 9999 FEW030 21/14 Q1016 NOSIG
cycle: 15

Station Type Date Time Source
LEMG TAF 2019/05/25 12:27 UTC NOAA

TAF LEMG 251100Z 2512/2612 13009KT 9999 FEW030 TX23/2513Z TN16/2605Z
BECMG 2519/2522 VRB02KT
BECMG 2600/2602 29006KT
BECMG 2607/2609 13009KT

Example: see airport list